Decoded Metar for KGAD (GADSDEN MUNI in AL, USA) (IATA:GAD) | Meteo·Mobile Aviation Weather
aviador You're here:

KGAD Decoded Metar

GADSDEN MUNI in AL, USA
Report Time2018-11-19 08:56:00
UTC Time2018-11-19 09:48:09
Flight Rules vfr VFR
WindCalm
Visibility9999 m
Phenomena:N/A
Clouds:N/A
CeilingNone
Temp03°C (ISA -11)
Dew Point03°C (100% RH)
AAT1.5°C
QNH1022 hPa
Density Alt-951 ft
Elevation568 ft
Report Wrong Elevation
Raw Report
METAR KGAD 190856Z AUTO 00000KT 8SM CLR 03/03 A3017 RMK AO2 SLP222
60000 T00330033 58003=

Extra information for KGAD:More info

Metar Taf Metar & Taf Last 4 Metars F.Rules Stats Wind Profile Meteogram Temp Stats Airport Information Weather charts Add Link Nearby VenuesMetar ALERT Operation Metar Decoded Social comments

AIRNAV info for KGAD